Tupelo, Mississippi
Current Conditions -  °F | °C
As of 8:53 PM on Saturday 24 Jan 2015 (Local Time) from KTUP Reporting Station
Clear Clear  
Wind Chill: 33°   Ceiling: Unl
Heat Index: 39°   Visibility: 10mi
Dew Point: 30°   Wind: 8mph
Humidity: 70%   Direction: 190°S
Pressure: 29.98"   Gusts: NA
Location:  34.26°N, 88.71°W
Report Text: KTUP 250253Z 19007KT 10SM CLR 04/M01 A2998 RMK AO2 SLP151 T00391011 51004 $
Loading
Personal Weather Stations






























Interactive Weather Map New forecast layout! Learn more

10-Day Weather Forecast

Advertisements
Track Severe Weather on mobile